sensor_id;sensor_type;location;lat;lon;timestamp;pressure;altitude;pressure_sealevel;temperature;humidity
74798;BME280;63326;45.088;7.658;2023-02-28T00:00:20;99268.41;;;3.91;63.87
74798;BME280;63326;45.088;7.658;2023-02-28T00:02:47;99255.50;;;3.86;64.02
74798;BME280;63326;45.088;7.658;2023-02-28T00:05:17;99274.41;;;3.93;64.36
74798;BME280;63326;45.088;7.658;2023-02-28T00:07:44;99265.03;;;3.89;64.69
74798;BME280;63326;45.088;7.658;2023-02-28T00:10:21;99217.00;;;3.60;64.11
74798;BME280;63326;45.088;7.658;2023-02-28T00:12:50;99266.63;;;3.80;63.82
74798;BME280;63326;45.088;7.658;2023-02-28T00:15:17;99267.31;;;3.93;64.16
74798;BME280;63326;45.088;7.658;2023-02-28T00:17:44;99181.03;;;3.35;63.87
74798;BME280;63326;45.088;7.658;2023-02-28T00:20:12;99266.09;;;3.86;63.51
74798;BME280;63326;45.088;7.658;2023-02-28T00:22:42;99270.00;;;3.82;64.97
74798;BME280;63326;45.088;7.658;2023-02-28T00:25:10;99202.22;;;3.35;65.12
74798;BME280;63326;45.088;7.658;2023-02-28T00:27:38;99262.31;;;3.68;66.08
74798;BME280;63326;45.088;7.658;2023-02-28T00:30:06;99267.13;;;3.63;65.58
74798;BME280;63326;45.088;7.658;2023-02-28T00:32:33;99258.63;;;3.48;66.23
74798;BME280;63326;45.088;7.658;2023-02-28T00:35:01;99244.03;;;3.31;66.55
74798;BME280;63326;45.088;7.658;2023-02-28T00:37:28;99238.88;;;3.30;67.59
74798;BME280;63326;45.088;7.658;2023-02-28T00:39:55;99259.69;;;3.45;67.69
74798;BME280;63326;45.088;7.658;2023-02-28T00:42:22;99259.81;;;3.44;66.81
74798;BME280;63326;45.088;7.658;2023-02-28T00:44:49;99269.94;;;3.50;66.73
74798;BME280;63326;45.088;7.658;2023-02-28T00:47:16;99275.22;;;3.50;67.41
74798;BME280;63326;45.088;7.658;2023-02-28T00:49:43;99272.59;;;3.50;67.60
74798;BME280;63326;45.088;7.658;2023-02-28T00:52:10;99270.91;;;3.49;67.22
74798;BME280;63326;45.088;7.658;2023-02-28T00:54:36;99257.41;;;3.41;66.73
74798;BME280;63326;45.088;7.658;2023-02-28T00:57:03;99258.63;;;3.48;66.85
74798;BME280;63326;45.088;7.658;2023-02-28T00:59:31;99243.56;;;3.37;67.45
74798;BME280;63326;45.088;7.658;2023-02-28T01:01:58;99275.22;;;3.61;67.76
74798;BME280;63326;45.088;7.658;2023-02-28T01:04:24;99245.69;;;3.55;68.16
74798;BME280;63326;45.088;7.658;2023-02-28T01:06:51;99249.91;;;3.57;68.32
74798;BME280;63326;45.088;7.658;2023-02-28T01:09:18;99245.34;;;3.59;68.18
74798;BME280;63326;45.088;7.658;2023-02-28T01:11:45;99218.72;;;3.50;67.49
74798;BME280;63326;45.088;7.658;2023-02-28T01:14:16;99269.59;;;3.87;67.08
74798;BME280;63326;45.088;7.658;2023-02-28T01:16:44;99248.66;;;3.72;67.03
74798;BME280;63326;45.088;7.658;2023-02-28T01:19:11;99269.72;;;3.85;65.95
74798;BME280;63326;45.088;7.658;2023-02-28T01:21:38;99239.28;;;3.68;65.95
74798;BME280;63326;45.088;7.658;2023-02-28T01:24:05;99268.03;;;3.84;65.64
74798;BME280;63326;45.088;7.658;2023-02-28T01:26:34;99284.91;;;3.94;64.91
74798;BME280;63326;45.088;7.658;2023-02-28T01:29:02;99245.03;;;3.73;64.56
74798;BME280;63326;45.088;7.658;2023-02-28T01:31:29;99283.66;;;3.98;64.43
74798;BME280;63326;45.088;7.658;2023-02-28T01:33:56;99264.06;;;3.90;64.44
74798;BME280;63326;45.088;7.658;2023-02-28T01:36:27;99274.41;;;3.93;64.98
74798;BME280;63326;45.088;7.658;2023-02-28T01:38:55;99200.63;;;3.55;65.40
74798;BME280;63326;45.088;7.658;2023-02-28T01:41:32;99260.22;;;3.83;64.95
74798;BME280;63326;45.088;7.658;2023-02-28T01:46:46;99250.22;;;3.75;65.55
74798;BME280;63326;45.088;7.658;2023-02-28T01:49:16;99281.91;;;3.88;66.95
74798;BME280;63326;45.088;7.658;2023-02-28T01:51:45;99280.47;;;3.84;66.93
74798;BME280;63326;45.088;7.658;2023-02-28T01:54:35;99233.16;;;3.57;66.71
74798;BME280;63326;45.088;7.658;2023-02-28T01:57:10;99225.44;;;3.54;66.83
74798;BME280;63326;45.088;7.658;2023-02-28T02:00:10;99265.16;;;3.76;65.62
74798;BME280;63326;45.088;7.658;2023-02-28T02:02:42;99248.09;;;3.69;66.14
74798;BME280;63326;45.088;7.658;2023-02-28T02:05:14;99272.16;;;3.77;66.55
74798;BME280;63326;45.088;7.658;2023-02-28T02:07:43;99235.22;;;3.53;66.36
74798;BME280;63326;45.088;7.658;2023-02-28T02:10:16;99275.78;;;3.76;66.28
74798;BME280;63326;45.088;7.658;2023-02-28T02:23:27;99274.44;;;3.82;65.08
74798;BME280;63326;45.088;7.658;2023-02-28T02:35:35;99271.78;;;3.82;64.74
74798;BME280;63326;45.088;7.658;2023-02-28T02:42:41;99280.84;;;3.79;64.64
74798;BME280;63326;45.088;7.658;2023-02-28T02:45:17;99276.63;;;3.76;65.43
74798;BME280;63326;45.088;7.658;2023-02-28T02:47:45;99250.38;;;3.62;64.90
74798;BME280;63326;45.088;7.658;2023-02-28T02:50:17;99286.16;;;3.79;65.35
74798;BME280;63326;45.088;7.658;2023-02-28T02:52:52;99285.53;;;3.75;66.13
74798;BME280;63326;45.088;7.658;2023-02-28T02:55:23;99291.94;;;3.73;65.43
74798;BME280;63326;45.088;7.658;2023-02-28T02:58:00;99260.28;;;3.60;65.75
74798;BME280;63326;45.088;7.658;2023-02-28T03:00:52;99262.44;;;3.55;65.95
74798;BME280;63326;45.088;7.658;2023-02-28T03:03:21;99260.88;;;3.53;65.70
74798;BME280;63326;45.088;7.658;2023-02-28T03:05:57;99286.78;;;3.71;65.76
74798;BME280;63326;45.088;7.658;2023-02-28T03:08:25;99246.53;;;3.55;65.69
74798;BME280;63326;45.088;7.658;2023-02-28T03:10:57;99271.56;;;3.73;65.57
74798;BME280;63326;45.088;7.658;2023-02-28T03:28:43;99287.13;;;3.67;66.97
74798;BME280;63326;45.088;7.658;2023-02-28T03:31:20;99256.81;;;3.49;66.31
74798;BME280;63326;45.088;7.658;2023-02-28T03:34:14;99294.38;;;3.65;66.65
74798;BME280;63326;45.088;7.658;2023-02-28T03:36:47;99279.81;;;3.59;67.56
74798;BME280;63326;45.088;7.658;2023-02-28T03:39:18;99273.69;;;3.47;67.15
74798;BME280;63326;45.088;7.658;2023-02-28T03:41:54;99285.59;;;3.53;68.42
74798;BME280;63326;45.088;7.658;2023-02-28T03:47:23;99268.47;;;3.46;68.35
74798;BME280;63326;45.088;7.658;2023-02-28T03:49:56;99291.25;;;3.60;67.94
74798;BME280;63326;45.088;7.658;2023-02-28T03:52:27;99279.31;;;3.54;68.04
74798;BME280;63326;45.088;7.658;2023-02-28T03:55:00;99290.63;;;3.56;68.27
74798;BME280;63326;45.088;7.658;2023-02-28T04:00:28;99248.13;;;3.35;68.28
74798;BME280;63326;45.088;7.658;2023-02-28T04:02:58;99278.34;;;3.55;67.78
74798;BME280;63326;45.088;7.658;2023-02-28T04:05:25;99301.97;;;3.69;68.30
74798;BME280;63326;45.088;7.658;2023-02-28T04:07:53;99280.88;;;3.57;68.16
74798;BME280;63326;45.088;7.658;2023-02-28T04:10:20;99284.34;;;3.57;68.16
74798;BME280;63326;45.088;7.658;2023-02-28T04:12:47;99301.59;;;3.63;68.41
74798;BME280;63326;45.088;7.658;2023-02-28T04:15:14;99310.88;;;3.68;68.40
74798;BME280;63326;45.088;7.658;2023-02-28T04:17:41;99280.88;;;3.45;69.60
74798;BME280;63326;45.088;7.658;2023-02-28T04:20:08;99302.34;;;3.54;69.17
74798;BME280;63326;45.088;7.658;2023-02-28T04:22:36;99318.47;;;3.62;68.11
74798;BME280;63326;45.088;7.658;2023-02-28T04:25:04;99322.94;;;3.61;68.21
74798;BME280;63326;45.088;7.658;2023-02-28T04:27:32;99297.28;;;3.51;68.48
74798;BME280;63326;45.088;7.658;2023-02-28T04:29:59;99326.19;;;3.65;67.55
74798;BME280;63326;45.088;7.658;2023-02-28T04:32:25;99296.66;;;3.47;67.80
74798;BME280;63326;45.088;7.658;2023-02-28T04:34:52;99328.25;;;3.61;68.12
74798;BME280;63326;45.088;7.658;2023-02-28T04:37:19;99307.41;;;3.45;67.79
74798;BME280;63326;45.088;7.658;2023-02-28T04:39:46;99301.38;;;3.43;66.99
74798;BME280;63326;45.088;7.658;2023-02-28T04:42:12;99301.63;;;3.40;66.63
74798;BME280;63326;45.088;7.658;2023-02-28T04:44:40;99302.09;;;3.45;66.45
74798;BME280;63326;45.088;7.658;2023-02-28T04:47:06;99330.91;;;3.61;66.83
74798;BME280;63326;45.088;7.658;2023-02-28T04:49:33;99289.22;;;3.41;66.58
74798;BME280;63326;45.088;7.658;2023-02-28T04:52:00;99328.13;;;3.63;66.75
74798;BME280;63326;45.088;7.658;2023-02-28T04:54:26;99312.34;;;3.50;66.85
74798;BME280;63326;45.088;7.658;2023-02-28T04:56:54;99314.75;;;3.53;66.59
74798;BME280;63326;45.088;7.658;2023-02-28T04:59:21;99301.25;;;3.45;67.24
74798;BME280;63326;45.088;7.658;2023-02-28T05:01:48;99325.84;;;3.58;67.22
74798;BME280;63326;45.088;7.658;2023-02-28T05:04:15;99273.06;;;3.22;67.41
74798;BME280;63326;45.088;7.658;2023-02-28T05:06:42;99310.41;;;3.41;67.16
74798;BME280;63326;45.088;7.658;2023-02-28T05:09:09;99348.88;;;3.58;67.04
74798;BME280;63326;45.088;7.658;2023-02-28T05:11:38;99316.56;;;3.41;67.11
74798;BME280;63326;45.088;7.658;2023-02-28T05:14:14;99325.47;;;3.52;66.66
74798;BME280;63326;45.088;7.658;2023-02-28T05:16:41;99320.66;;;3.45;66.61
74798;BME280;63326;45.088;7.658;2023-02-28T05:19:08;99303.44;;;3.40;67.07
74798;BME280;63326;45.088;7.658;2023-02-28T05:21:38;99340.66;;;3.61;67.27
74798;BME280;63326;45.088;7.658;2023-02-28T05:24:10;99319.59;;;3.48;67.32
74798;BME280;63326;45.088;7.658;2023-02-28T05:26:42;99341.75;;;3.58;67.44
74798;BME280;63326;45.088;7.658;2023-02-28T05:29:09;99327.66;;;3.58;67.28
74798;BME280;63326;45.088;7.658;2023-02-28T05:31:37;99334.28;;;3.52;67.01
74798;BME280;63326;45.088;7.658;2023-02-28T05:34:04;99351.13;;;3.62;67.33
74798;BME280;63326;45.088;7.658;2023-02-28T05:36:32;99351.59;;;3.56;67.91
74798;BME280;63326;45.088;7.658;2023-02-28T05:38:59;99352.56;;;3.55;68.15
74798;BME280;63326;45.088;7.658;2023-02-28T05:41:25;99315.00;;;3.28;67.79
74798;BME280;63326;45.088;7.658;2023-02-28T05:43:53;99352.81;;;3.52;67.90
74798;BME280;63326;45.088;7.658;2023-02-28T05:46:20;99330.28;;;3.35;68.16
74798;BME280;63326;45.088;7.658;2023-02-28T05:48:47;99356.44;;;3.51;67.73
74798;BME280;63326;45.088;7.658;2023-02-28T05:51:15;99348.38;;;3.53;67.90
74798;BME280;63326;45.088;7.658;2023-02-28T05:53:42;99346.69;;;3.52;67.04
74798;BME280;63326;45.088;7.658;2023-02-28T05:56:09;99340.03;;;3.46;66.89
74798;BME280;63326;45.088;7.658;2023-02-28T05:58:36;99329.94;;;3.40;67.42
74798;BME280;63326;45.088;7.658;2023-02-28T06:01:23;99355.09;;;3.45;68.00
74798;BME280;63326;45.088;7.658;2023-02-28T06:03:51;99336.56;;;3.34;67.63
74798;BME280;63326;45.088;7.658;2023-02-28T06:06:18;99339.91;;;3.36;67.94
74798;BME280;63326;45.088;7.658;2023-02-28T06:08:44;99344.03;;;3.40;67.94
74798;BME280;63326;45.088;7.658;2023-02-28T06:11:12;99323.03;;;3.26;68.33
74798;BME280;63326;45.088;7.658;2023-02-28T06:13:39;99338.34;;;3.34;68.79
74798;BME280;63326;45.088;7.658;2023-02-28T06:16:06;99363.44;;;3.52;68.20
74798;BME280;63326;45.088;7.658;2023-02-28T06:18:33;99331.13;;;3.36;68.88
74798;BME280;63326;45.088;7.658;2023-02-28T06:21:00;99322.13;;;3.27;68.97
74798;BME280;63326;45.088;7.658;2023-02-28T06:23:27;99357.16;;;3.53;67.89
74798;BME280;63326;45.088;7.658;2023-02-28T06:25:53;99362.97;;;3.58;67.54
74798;BME280;63326;45.088;7.658;2023-02-28T06:28:25;99356.44;;;3.51;68.57
74798;BME280;63326;45.088;7.658;2023-02-28T06:30:52;99360.19;;;3.60;67.17
74798;BME280;63326;45.088;7.658;2023-02-28T06:33:19;99373.91;;;3.65;66.67
74798;BME280;63326;45.088;7.658;2023-02-28T06:35:52;99373.06;;;3.64;67.15
74798;BME280;63326;45.088;7.658;2023-02-28T06:38:20;99378.25;;;3.66;67.09
74798;BME280;63326;45.088;7.658;2023-02-28T06:40:56;99378.03;;;3.69;65.47
74798;BME280;63326;45.088;7.658;2023-02-28T06:43:24;99383.22;;;3.70;64.33
74798;BME280;63326;45.088;7.658;2023-02-28T06:45:55;99379.94;;;3.67;61.95
74798;BME280;63326;45.088;7.658;2023-02-28T06:48:22;99383.09;;;3.72;61.86
74798;BME280;63326;45.088;7.658;2023-02-28T06:50:49;99390.19;;;3.71;62.66
74798;BME280;63326;45.088;7.658;2023-02-28T06:53:16;99385.22;;;3.67;62.27
74798;BME280;63326;45.088;7.658;2023-02-28T06:55:42;99392.84;;;3.71;63.14
74798;BME280;63326;45.088;7.658;2023-02-28T06:58:10;99383.34;;;3.58;62.82
74798;BME280;63326;45.088;7.658;2023-02-28T07:00:45;99395.97;;;3.65;62.42
74798;BME280;63326;45.088;7.658;2023-02-28T07:03:12;99392.00;;;3.71;61.92
74798;BME280;63326;45.088;7.658;2023-02-28T07:05:39;99401.66;;;3.72;61.59
74798;BME280;63326;45.088;7.658;2023-02-28T07:08:06;99397.78;;;3.76;61.47
74798;BME280;63326;45.088;7.658;2023-02-28T07:10:33;99374.16;;;3.62;62.03
74798;BME280;63326;45.088;7.658;2023-02-28T07:13:00;99401.91;;;3.80;61.30
74798;BME280;63326;45.088;7.658;2023-02-28T07:15:27;99402.59;;;3.82;60.96
74798;BME280;63326;45.088;7.658;2023-02-28T07:17:53;99412.84;;;3.87;61.53
74798;BME280;63326;45.088;7.658;2023-02-28T07:20:20;99383.81;;;3.74;61.08
74798;BME280;63326;45.088;7.658;2023-02-28T07:22:47;99400.31;;;3.78;62.36
74798;BME280;63326;45.088;7.658;2023-02-28T07:25:27;99417.81;;;3.80;61.09
74798;BME280;63326;45.088;7.658;2023-02-28T07:27:55;99413.69;;;3.76;61.17
74798;BME280;63326;45.088;7.658;2023-02-28T07:30:22;99402.00;;;3.67;60.57
74798;BME280;63326;45.088;7.658;2023-02-28T07:32:49;99387.41;;;3.62;60.28
74798;BME280;63326;45.088;7.658;2023-02-28T07:35:16;99415.75;;;3.84;60.88
74798;BME280;63326;45.088;7.658;2023-02-28T07:37:42;99416.00;;;3.92;61.60
74798;BME280;63326;45.088;7.658;2023-02-28T07:40:10;99412.13;;;3.96;62.78
74798;BME280;63326;45.088;7.658;2023-02-28T07:42:41;99416.31;;;3.98;61.71
74798;BME280;63326;45.088;7.658;2023-02-28T07:45:09;99422.72;;;4.07;62.25
74798;BME280;63326;45.088;7.658;2023-02-28T07:47:38;99388.09;;;3.97;62.91
74798;BME280;63326;45.088;7.658;2023-02-28T07:50:06;99425.59;;;4.26;58.22
74798;BME280;63326;45.088;7.658;2023-02-28T07:52:33;99407.75;;;4.17;57.77
74798;BME280;63326;45.088;7.658;2023-02-28T07:55:00;99426.81;;;4.22;58.47
74798;BME280;63326;45.088;7.658;2023-02-28T07:57:26;99429.94;;;4.27;60.00
74798;BME280;63326;45.088;7.658;2023-02-28T07:59:53;99432.81;;;4.36;61.06
74798;BME280;63326;45.088;7.658;2023-02-28T08:02:20;99436.94;;;4.40;62.50
74798;BME280;63326;45.088;7.658;2023-02-28T08:04:46;99427.88;;;4.42;61.48
74798;BME280;63326;45.088;7.658;2023-02-28T08:07:17;99440.88;;;4.45;62.02
74798;BME280;63326;45.088;7.658;2023-02-28T08:09:44;99430.25;;;4.45;61.32
74798;BME280;63326;45.088;7.658;2023-02-28T08:12:11;99437.47;;;4.54;62.48
74798;BME280;63326;45.088;7.658;2023-02-28T08:14:38;99426.75;;;4.45;62.34
74798;BME280;63326;45.088;7.658;2023-02-28T08:17:06;99431.59;;;4.51;62.57
74798;BME280;63326;45.088;7.658;2023-02-28T08:19:33;99448.19;;;4.64;63.21
74798;BME280;63326;45.088;7.658;2023-02-28T08:21:59;99451.81;;;4.63;62.23
74798;BME280;63326;45.088;7.658;2023-02-28T08:24:26;99453.78;;;4.61;63.57
74798;BME280;63326;45.088;7.658;2023-02-28T08:26:53;99441.75;;;4.34;64.68
74798;BME280;63326;45.088;7.658;2023-02-28T08:29:19;99437.53;;;4.32;65.29
74798;BME280;63326;45.088;7.658;2023-02-28T08:31:46;99453.78;;;4.39;62.17
74798;BME280;63326;45.088;7.658;2023-02-28T08:34:15;99425.34;;;4.18;62.05
74798;BME280;63326;45.088;7.658;2023-02-28T08:36:42;99454.19;;;4.34;62.20
74798;BME280;63326;45.088;7.658;2023-02-28T08:39:11;99452.34;;;4.46;62.39
74798;BME280;63326;45.088;7.658;2023-02-28T08:41:38;99450.06;;;4.41;60.76
74798;BME280;63326;45.088;7.658;2023-02-28T08:44:05;99456.34;;;4.40;61.56
74798;BME280;63326;45.088;7.658;2023-02-28T08:46:31;99466.78;;;4.64;60.32
74798;BME280;63326;45.088;7.658;2023-02-28T08:48:58;99460.78;;;4.62;61.58
74798;BME280;63326;45.088;7.658;2023-02-28T08:51:26;99475.69;;;4.74;62.16
74798;BME280;63326;45.088;7.658;2023-02-28T08:53:55;99437.84;;;4.61;61.91
74798;BME280;63326;45.088;7.658;2023-02-28T08:56:24;99476.38;;;4.87;62.26
74798;BME280;63326;45.088;7.658;2023-02-28T08:58:50;99457.94;;;4.75;61.83
74798;BME280;63326;45.088;7.658;2023-02-28T09:01:19;99480.09;;;4.96;61.52
74798;BME280;63326;45.088;7.658;2023-02-28T09:03:48;99470.69;;;4.92;62.25
74798;BME280;63326;45.088;7.658;2023-02-28T09:06:17;99485.03;;;5.01;62.13
74798;BME280;63326;45.088;7.658;2023-02-28T09:08:44;99483.81;;;5.05;61.68
74798;BME280;63326;45.088;7.658;2023-02-28T09:11:13;99487.56;;;5.02;62.57
74798;BME280;63326;45.088;7.658;2023-02-28T09:13:40;99480.66;;;5.00;62.33
74798;BME280;63326;45.088;7.658;2023-02-28T09:16:10;99488.72;;;5.09;61.92
74798;BME280;63326;45.088;7.658;2023-02-28T09:18:38;99493.06;;;5.10;61.04
74798;BME280;63326;45.088;7.658;2023-02-28T09:21:06;99493.81;;;5.12;62.62
74798;BME280;63326;45.088;7.658;2023-02-28T09:23:33;99480.66;;;5.11;61.43
74798;BME280;63326;45.088;7.658;2023-02-28T09:25:59;99492.06;;;5.23;61.27
74798;BME280;63326;45.088;7.658;2023-02-28T09:28:26;99485.78;;;5.24;60.80
74798;BME280;63326;45.088;7.658;2023-02-28T09:30:54;99496.03;;;5.28;61.42
74798;BME280;63326;45.088;7.658;2023-02-28T09:33:21;99487.53;;;5.34;60.78
74798;BME280;63326;45.088;7.658;2023-02-28T09:35:49;99509.59;;;5.46;60.73
74798;BME280;63326;45.088;7.658;2023-02-28T09:38:16;99504.84;;;5.49;60.74
74798;BME280;63326;45.088;7.658;2023-02-28T09:40:50;99515.81;;;5.35;60.79
74798;BME280;63326;45.088;7.658;2023-02-28T09:43:22;99509.25;;;5.39;60.66
74798;BME280;63326;45.088;7.658;2023-02-28T09:48:56;99509.88;;;5.43;61.44
74798;BME280;63326;45.088;7.658;2023-02-28T09:54:21;99494.69;;;5.55;61.51
74798;BME280;63326;45.088;7.658;2023-02-28T09:57:04;99505.50;;;5.21;61.33
74798;BME280;63326;45.088;7.658;2023-02-28T10:02:40;99452.78;;;5.26;60.79
74798;BME280;63326;45.088;7.658;2023-02-28T10:05:21;99498.97;;;5.67;60.11
74798;BME280;63326;45.088;7.658;2023-02-28T10:10:33;99474.44;;;5.63;61.00
74798;BME280;63326;45.088;7.658;2023-02-28T10:13:06;99513.88;;;5.58;58.81
74798;BME280;63326;45.088;7.658;2023-02-28T10:15:38;99511.75;;;5.52;60.58
74798;BME280;63326;45.088;7.658;2023-02-28T10:18:11;99509.09;;;5.73;59.09
74798;BME280;63326;45.088;7.658;2023-02-28T10:20:41;99506.59;;;5.60;58.16
74798;BME280;63326;45.088;7.658;2023-02-28T10:23:19;99512.13;;;5.68;59.37
74798;BME280;63326;45.088;7.658;2023-02-28T10:26:15;99503.50;;;5.76;57.69
74798;BME280;63326;45.088;7.658;2023-02-28T10:28:42;99489.03;;;5.48;58.68
74798;BME280;63326;45.088;7.658;2023-02-28T10:31:14;99504.00;;;6.12;58.12
74798;BME280;63326;45.088;7.658;2023-02-28T10:33:43;99487.59;;;6.06;57.79
74798;BME280;63326;45.088;7.658;2023-02-28T10:36:14;99500.66;;;6.50;56.62
74798;BME280;63326;45.088;7.658;2023-02-28T10:38:44;99498.19;;;6.68;55.39
74798;BME280;63326;45.088;7.658;2023-02-28T10:41:26;99500.16;;;6.25;55.27
74798;BME280;63326;45.088;7.658;2023-02-28T10:44:20;99504.34;;;6.68;54.43
74798;BME280;63326;45.088;7.658;2023-02-28T10:46:48;99490.81;;;6.50;54.34
74798;BME280;63326;45.088;7.658;2023-02-28T10:49:20;99499.53;;;6.52;54.46
74798;BME280;63326;45.088;7.658;2023-02-28T10:51:50;99471.25;;;6.80;53.84
74798;BME280;63326;45.088;7.658;2023-02-28T10:54:22;99473.53;;;7.04;53.73
74798;BME280;63326;45.088;7.658;2023-02-28T10:57:23;99472.81;;;7.41;52.53
74798;BME280;63326;45.088;7.658;2023-02-28T11:00:32;99476.28;;;7.70;51.57
74798;BME280;63326;45.088;7.658;2023-02-28T11:02:54;99471.47;;;7.84;51.02
74798;BME280;63326;45.088;7.658;2023-02-28T11:07:58;99475.78;;;7.94;49.82
74798;BME280;63326;45.088;7.658;2023-02-28T11:10:30;99473.22;;;8.12;50.12
74798;BME280;63326;45.088;7.658;2023-02-28T11:13:01;99472.91;;;8.15;49.91
74798;BME280;63326;45.088;7.658;2023-02-28T11:15:37;99468.81;;;8.21;49.05
74798;BME280;63326;45.088;7.658;2023-02-28T11:18:30;99471.34;;;7.66;50.29
74798;BME280;63326;45.088;7.658;2023-02-28T11:20:59;99463.28;;;7.29;50.75
74798;BME280;63326;45.088;7.658;2023-02-28T11:23:30;99437.59;;;7.37;50.26
74798;BME280;63326;45.088;7.658;2023-02-28T11:25:59;99464.78;;;7.70;50.45
74798;BME280;63326;45.088;7.658;2023-02-28T11:28:31;99468.75;;;8.03;49.71
74798;BME280;63326;45.088;7.658;2023-02-28T11:36:31;99444.94;;;8.19;49.55
74798;BME280;63326;45.088;7.658;2023-02-28T11:39:08;99446.34;;;8.14;47.26
74798;BME280;63326;45.088;7.658;2023-02-28T11:50:48;99418.44;;;7.51;47.85
74798;BME280;63326;45.088;7.658;2023-02-28T12:05:28;99417.50;;;7.90;47.76
74798;BME280;63326;45.088;7.658;2023-02-28T12:08:19;99411.78;;;8.12;47.24
74798;BME280;63326;45.088;7.658;2023-02-28T12:16:26;99400.78;;;8.15;47.87
74798;BME280;63326;45.088;7.658;2023-02-28T12:19:21;99403.19;;;8.18;47.44
74798;BME280;63326;45.088;7.658;2023-02-28T12:27:22;99368.88;;;7.59;47.87
74798;BME280;63326;45.088;7.658;2023-02-28T12:30:04;99393.06;;;7.85;47.80
74798;BME280;63326;45.088;7.658;2023-02-28T12:32:41;99382.78;;;7.90;47.70
74798;BME280;63326;45.088;7.658;2023-02-28T12:40:21;99375.34;;;7.84;48.57
74798;BME280;63326;45.088;7.658;2023-02-28T12:42:51;99384.28;;;7.18;49.54
74798;BME280;63326;45.088;7.658;2023-02-28T12:45:24;99383.91;;;7.50;49.44
74798;BME280;63326;45.088;7.658;2023-02-28T12:48:01;99377.63;;;7.41;48.90
74798;BME280;63326;45.088;7.658;2023-02-28T12:50:29;99369.56;;;7.61;49.26
74798;BME280;63326;45.088;7.658;2023-02-28T12:58:37;99334.84;;;7.23;50.24
74798;BME280;63326;45.088;7.658;2023-02-28T13:04:32;99363.25;;;6.96;51.07
74798;BME280;63326;45.088;7.658;2023-02-28T13:09:59;99353.97;;;6.32;53.38
74798;BME280;63326;45.088;7.658;2023-02-28T13:12:27;99336.72;;;6.17;53.34
74798;BME280;63326;45.088;7.658;2023-02-28T13:15:27;99344.88;;;6.25;53.58
74798;BME280;63326;45.088;7.658;2023-02-28T13:17:58;99293.13;;;6.18;53.26
74798;BME280;63326;45.088;7.658;2023-02-28T13:20:27;99321.63;;;6.56;52.47
74798;BME280;63326;45.088;7.658;2023-02-28T13:22:56;99335.31;;;6.90;52.08
74798;BME280;63326;45.088;7.658;2023-02-28T13:28:09;99314.03;;;6.61;51.70
74798;BME280;63326;45.088;7.658;2023-02-28T13:36:06;99296.34;;;6.79;51.94
74798;BME280;63326;45.088;7.658;2023-02-28T13:38:45;99332.53;;;6.43;52.91
74798;BME280;63326;45.088;7.658;2023-02-28T13:51:55;99316.78;;;6.01;54.04
74798;BME280;63326;45.088;7.658;2023-02-28T13:57:44;99320.47;;;6.58;53.31
74798;BME280;63326;45.088;7.658;2023-02-28T14:06:34;99307.69;;;5.64;52.51
74798;BME280;63326;45.088;7.658;2023-02-28T14:11:39;99295.13;;;5.75;54.24
74798;BME280;63326;45.088;7.658;2023-02-28T14:14:08;99184.75;;;5.01;54.12
74798;BME280;63326;45.088;7.658;2023-02-28T14:16:46;99284.75;;;5.63;55.49
74798;BME280;63326;45.088;7.658;2023-02-28T14:19:22;99291.75;;;5.33;54.79
74798;BME280;63326;45.088;7.658;2023-02-28T14:22:17;99292.25;;;5.58;54.31
74798;BME280;63326;45.088;7.658;2023-02-28T14:31:07;99278.50;;;5.83;54.72
74798;BME280;63326;45.088;7.658;2023-02-28T14:36:07;99275.59;;;5.56;52.01
74798;BME280;63326;45.088;7.658;2023-02-28T14:41:33;99277.84;;;5.60;54.41
74798;BME280;63326;45.088;7.658;2023-02-28T14:44:33;99280.56;;;5.39;54.18
74798;BME280;63326;45.088;7.658;2023-02-28T14:47:01;99270.66;;;5.51;53.92
74798;BME280;63326;45.088;7.658;2023-02-28T14:49:36;99279.91;;;5.47;54.80
74798;BME280;63326;45.088;7.658;2023-02-28T14:52:22;99270.47;;;5.64;53.62
74798;BME280;63326;45.088;7.658;2023-02-28T14:54:54;99273.13;;;5.64;53.67
74798;BME280;63326;45.088;7.658;2023-02-28T14:57:33;99274.06;;;5.53;53.53
74798;BME280;63326;45.088;7.658;2023-02-28T15:00:22;99269.56;;;5.44;53.51
74798;BME280;63326;45.088;7.658;2023-02-28T15:02:49;99190.91;;;5.01;54.05
74798;BME280;63326;45.088;7.658;2023-02-28T15:05:27;99249.38;;;5.41;54.92
74798;BME280;63326;45.088;7.658;2023-02-28T15:08:15;99251.13;;;5.22;54.62
74798;BME280;63326;45.088;7.658;2023-02-28T15:11:16;99260.41;;;5.37;54.76
74798;BME280;63326;45.088;7.658;2023-02-28T15:13:44;99255.56;;;5.42;53.91
74798;BME280;63326;45.088;7.658;2023-02-28T15:21:21;99258.41;;;5.29;55.97
74798;BME280;63326;45.088;7.658;2023-02-28T15:23:56;99258.41;;;5.29;56.05
74798;BME280;63326;45.088;7.658;2023-02-28T15:26:27;99253.75;;;5.42;55.92
74798;BME280;63326;45.088;7.658;2023-02-28T15:29:04;99246.50;;;5.54;56.21
74798;BME280;63326;45.088;7.658;2023-02-28T15:31:41;99251.47;;;5.38;56.96
74798;BME280;63326;45.088;7.658;2023-02-28T15:34:43;99242.16;;;5.13;56.69
74798;BME280;63326;45.088;7.658;2023-02-28T15:40:16;99238.19;;;5.07;57.73
74798;BME280;63326;45.088;7.658;2023-02-28T15:43:12;99237.13;;;5.19;57.11
74798;BME280;63326;45.088;7.658;2023-02-28T15:45:51;99226.78;;;5.26;56.01
74798;BME280;63326;45.088;7.658;2023-02-28T15:50:53;99229.38;;;5.47;56.07
74798;BME280;63326;45.088;7.658;2023-02-28T15:53:28;99174.16;;;5.20;55.54
74798;BME280;63326;45.088;7.658;2023-02-28T15:56:26;99225.34;;;5.53;53.89
74798;BME280;63326;45.088;7.658;2023-02-28T15:58:58;99236.25;;;5.49;54.10
74798;BME280;63326;45.088;7.658;2023-02-28T16:01:36;99222.81;;;5.51;54.27
74798;BME280;63326;45.088;7.658;2023-02-28T16:04:18;99227.69;;;5.46;53.69
74798;BME280;63326;45.088;7.658;2023-02-28T16:09:24;99171.88;;;5.06;54.38
74798;BME280;63326;45.088;7.658;2023-02-28T16:11:53;99235.69;;;5.46;54.40
74798;BME280;63326;45.088;7.658;2023-02-28T16:14:24;99234.38;;;5.40;55.65
74798;BME280;63326;45.088;7.658;2023-02-28T16:16:54;99232.91;;;5.17;56.05
74798;BME280;63326;45.088;7.658;2023-02-28T16:19:21;99227.28;;;5.10;56.56
74798;BME280;63326;45.088;7.658;2023-02-28T16:21:49;99231.69;;;5.21;56.08
74798;BME280;63326;45.088;7.658;2023-02-28T16:24:15;99203.47;;;4.99;56.92